sensor_id;sensor_type;location;lat;lon;timestamp;temperature;humidity
21306;DHT22;10812;51.838;5.838;2023-07-31T00:02:24;15.10;99.90
21306;DHT22;10812;51.838;5.838;2023-07-31T00:04:52;15.10;99.90
21306;DHT22;10812;51.838;5.838;2023-07-31T00:07:20;15.20;99.90
21306;DHT22;10812;51.838;5.838;2023-07-31T00:09:48;15.30;99.90
21306;DHT22;10812;51.838;5.838;2023-07-31T00:12:16;15.30;99.90
21306;DHT22;10812;51.838;5.838;2023-07-31T00:14:46;15.20;99.90
21306;DHT22;10812;51.838;5.838;2023-07-31T00:17:14;15.30;99.90
21306;DHT22;10812;51.838;5.838;2023-07-31T00:19:42;15.30;99.90
21306;DHT22;10812;51.838;5.838;2023-07-31T00:22:12;15.40;99.90
21306;DHT22;10812;51.838;5.838;2023-07-31T00:24:40;15.50;99.90
21306;DHT22;10812;51.838;5.838;2023-07-31T00:27:08;15.50;99.90
21306;DHT22;10812;51.838;5.838;2023-07-31T00:29:36;15.60;99.90
21306;DHT22;10812;51.838;5.838;2023-07-31T00:32:07;15.70;99.90
21306;DHT22;10812;51.838;5.838;2023-07-31T00:34:35;15.80;99.90
21306;DHT22;10812;51.838;5.838;2023-07-31T00:37:03;15.90;99.90
21306;DHT22;10812;51.838;5.838;2023-07-31T00:39:33;16.00;99.90
21306;DHT22;10812;51.838;5.838;2023-07-31T00:45:09;16.00;99.90
21306;DHT22;10812;51.838;5.838;2023-07-31T00:47:39;16.10;99.90
21306;DHT22;10812;51.838;5.838;2023-07-31T00:50:08;16.20;99.90
21306;DHT22;10812;51.838;5.838;2023-07-31T00:52:36;16.20;99.90
21306;DHT22;10812;51.838;5.838;2023-07-31T00:55:05;16.20;99.90
21306;DHT22;10812;51.838;5.838;2023-07-31T00:57:33;16.20;99.90
21306;DHT22;10812;51.838;5.838;2023-07-31T01:00:03;16.20;99.90
21306;DHT22;10812;51.838;5.838;2023-07-31T01:02:31;16.30;99.90
21306;DHT22;10812;51.838;5.838;2023-07-31T01:05:01;16.20;99.90
21306;DHT22;10812;51.838;5.838;2023-07-31T01:07:35;16.30;99.90
21306;DHT22;10812;51.838;5.838;2023-07-31T01:10:13;16.20;99.90
21306;DHT22;10812;51.838;5.838;2023-07-31T01:12:45;16.30;99.90
21306;DHT22;10812;51.838;5.838;2023-07-31T01:15:13;16.30;99.90
21306;DHT22;10812;51.838;5.838;2023-07-31T01:17:42;16.30;99.90
21306;DHT22;10812;51.838;5.838;2023-07-31T01:20:13;16.30;99.90
21306;DHT22;10812;51.838;5.838;2023-07-31T01:22:59;16.20;99.90
21306;DHT22;10812;51.838;5.838;2023-07-31T01:25:56;16.30;99.90
21306;DHT22;10812;51.838;5.838;2023-07-31T01:28:30;16.30;99.90
21306;DHT22;10812;51.838;5.838;2023-07-31T01:31:02;16.30;99.90
21306;DHT22;10812;51.838;5.838;2023-07-31T01:33:33;16.30;99.90
21306;DHT22;10812;51.838;5.838;2023-07-31T01:36:01;16.30;99.90
21306;DHT22;10812;51.838;5.838;2023-07-31T01:38:29;16.30;99.90
21306;DHT22;10812;51.838;5.838;2023-07-31T01:40:59;16.20;99.90
21306;DHT22;10812;51.838;5.838;2023-07-31T01:43:27;16.30;99.90
21306;DHT22;10812;51.838;5.838;2023-07-31T01:53:30;16.30;99.90
21306;DHT22;10812;51.838;5.838;2023-07-31T01:56:00;16.30;99.90
21306;DHT22;10812;51.838;5.838;2023-07-31T01:58:28;16.30;99.90
21306;DHT22;10812;51.838;5.838;2023-07-31T02:00:56;16.30;99.90
21306;DHT22;10812;51.838;5.838;2023-07-31T02:03:24;16.30;99.90
21306;DHT22;10812;51.838;5.838;2023-07-31T02:05:54;16.30;99.90
21306;DHT22;10812;51.838;5.838;2023-07-31T02:08:23;16.30;99.90
21306;DHT22;10812;51.838;5.838;2023-07-31T02:10:51;16.30;99.90
21306;DHT22;10812;51.838;5.838;2023-07-31T02:13:21;16.20;99.90
21306;DHT22;10812;51.838;5.838;2023-07-31T02:15:49;16.30;99.90
21306;DHT22;10812;51.838;5.838;2023-07-31T02:18:17;16.30;99.90
21306;DHT22;10812;51.838;5.838;2023-07-31T02:20:49;16.20;99.90
21306;DHT22;10812;51.838;5.838;2023-07-31T02:23:17;16.20;99.90
21306;DHT22;10812;51.838;5.838;2023-07-31T02:25:46;16.20;99.90
21306;DHT22;10812;51.838;5.838;2023-07-31T02:28:14;16.20;99.90
21306;DHT22;10812;51.838;5.838;2023-07-31T02:30:45;16.20;99.90
21306;DHT22;10812;51.838;5.838;2023-07-31T02:33:14;16.20;99.90
21306;DHT22;10812;51.838;5.838;2023-07-31T02:35:43;16.20;99.90
21306;DHT22;10812;51.838;5.838;2023-07-31T02:38:11;16.20;99.90
21306;DHT22;10812;51.838;5.838;2023-07-31T02:40:39;16.20;99.90
21306;DHT22;10812;51.838;5.838;2023-07-31T02:43:07;16.20;99.90
21306;DHT22;10812;51.838;5.838;2023-07-31T02:45:35;16.20;99.90
21306;DHT22;10812;51.838;5.838;2023-07-31T02:48:05;16.20;99.90
21306;DHT22;10812;51.838;5.838;2023-07-31T02:50:33;16.20;99.90
21306;DHT22;10812;51.838;5.838;2023-07-31T02:53:01;16.20;99.90
21306;DHT22;10812;51.838;5.838;2023-07-31T02:55:29;16.20;99.90
21306;DHT22;10812;51.838;5.838;2023-07-31T02:57:57;16.20;99.90
21306;DHT22;10812;51.838;5.838;2023-07-31T03:05:51;16.20;99.90
21306;DHT22;10812;51.838;5.838;2023-07-31T03:08:19;16.20;99.90
21306;DHT22;10812;51.838;5.838;2023-07-31T03:10:48;16.20;99.90
21306;DHT22;10812;51.838;5.838;2023-07-31T03:13:16;16.20;99.90
21306;DHT22;10812;51.838;5.838;2023-07-31T03:15:44;16.20;99.90
21306;DHT22;10812;51.838;5.838;2023-07-31T03:18:12;16.20;99.90
21306;DHT22;10812;51.838;5.838;2023-07-31T03:20:42;16.10;99.90
21306;DHT22;10812;51.838;5.838;2023-07-31T03:23:12;16.10;99.90
21306;DHT22;10812;51.838;5.838;2023-07-31T03:25:54;16.10;99.90
21306;DHT22;10812;51.838;5.838;2023-07-31T03:28:22;16.10;99.90
21306;DHT22;10812;51.838;5.838;2023-07-31T03:30:51;16.00;99.90
21306;DHT22;10812;51.838;5.838;2023-07-31T03:33:19;16.00;99.90
21306;DHT22;10812;51.838;5.838;2023-07-31T03:35:47;16.10;99.90
21306;DHT22;10812;51.838;5.838;2023-07-31T03:38:17;16.00;99.90
21306;DHT22;10812;51.838;5.838;2023-07-31T03:40:45;16.00;99.90
21306;DHT22;10812;51.838;5.838;2023-07-31T03:43:13;16.00;99.90
21306;DHT22;10812;51.838;5.838;2023-07-31T03:45:41;16.00;99.90
21306;DHT22;10812;51.838;5.838;2023-07-31T03:48:09;15.90;99.90
21306;DHT22;10812;51.838;5.838;2023-07-31T03:50:37;15.90;99.90
21306;DHT22;10812;51.838;5.838;2023-07-31T03:53:05;15.90;99.90
21306;DHT22;10812;51.838;5.838;2023-07-31T03:55:35;15.90;99.90
21306;DHT22;10812;51.838;5.838;2023-07-31T03:58:03;15.90;99.90
21306;DHT22;10812;51.838;5.838;2023-07-31T04:00:31;15.90;99.90
21306;DHT22;10812;51.838;5.838;2023-07-31T04:02:59;15.90;99.90
21306;DHT22;10812;51.838;5.838;2023-07-31T04:05:29;15.80;99.90
21306;DHT22;10812;51.838;5.838;2023-07-31T04:07:57;15.80;99.90
21306;DHT22;10812;51.838;5.838;2023-07-31T04:10:25;15.80;99.90
21306;DHT22;10812;51.838;5.838;2023-07-31T04:12:55;15.80;99.90
21306;DHT22;10812;51.838;5.838;2023-07-31T04:15:23;15.90;99.90
21306;DHT22;10812;51.838;5.838;2023-07-31T04:17:51;15.90;99.90
21306;DHT22;10812;51.838;5.838;2023-07-31T04:20:19;15.90;99.90
21306;DHT22;10812;51.838;5.838;2023-07-31T04:22:47;15.90;99.90
21306;DHT22;10812;51.838;5.838;2023-07-31T04:25:15;15.90;99.90
21306;DHT22;10812;51.838;5.838;2023-07-31T04:27:43;16.00;99.90
21306;DHT22;10812;51.838;5.838;2023-07-31T04:30:12;16.00;99.90
21306;DHT22;10812;51.838;5.838;2023-07-31T04:32:41;16.00;99.90
21306;DHT22;10812;51.838;5.838;2023-07-31T04:35:09;16.00;99.90
21306;DHT22;10812;51.838;5.838;2023-07-31T04:37:37;16.00;99.90
21306;DHT22;10812;51.838;5.838;2023-07-31T04:40:06;16.00;99.90
21306;DHT22;10812;51.838;5.838;2023-07-31T04:42:35;16.00;99.90
21306;DHT22;10812;51.838;5.838;2023-07-31T04:45:04;16.00;99.90
21306;DHT22;10812;51.838;5.838;2023-07-31T04:47:33;16.00;99.90
21306;DHT22;10812;51.838;5.838;2023-07-31T04:50:01;16.00;99.90
21306;DHT22;10812;51.838;5.838;2023-07-31T04:52:29;16.00;99.90
21306;DHT22;10812;51.838;5.838;2023-07-31T04:54:58;16.10;99.90
21306;DHT22;10812;51.838;5.838;2023-07-31T04:57:26;16.10;99.90
21306;DHT22;10812;51.838;5.838;2023-07-31T04:59:54;16.10;99.90
21306;DHT22;10812;51.838;5.838;2023-07-31T05:02:22;16.10;99.90
21306;DHT22;10812;51.838;5.838;2023-07-31T05:04:52;16.20;99.90
21306;DHT22;10812;51.838;5.838;2023-07-31T05:07:20;16.20;99.90
21306;DHT22;10812;51.838;5.838;2023-07-31T05:09:49;16.20;99.90
21306;DHT22;10812;51.838;5.838;2023-07-31T05:12:17;16.30;99.90
21306;DHT22;10812;51.838;5.838;2023-07-31T05:14:45;16.30;99.90
21306;DHT22;10812;51.838;5.838;2023-07-31T05:17:13;16.40;99.90
21306;DHT22;10812;51.838;5.838;2023-07-31T05:19:41;16.40;99.90
21306;DHT22;10812;51.838;5.838;2023-07-31T05:22:10;16.40;99.90
21306;DHT22;10812;51.838;5.838;2023-07-31T05:24:38;16.40;99.90
21306;DHT22;10812;51.838;5.838;2023-07-31T05:27:07;16.40;99.90
21306;DHT22;10812;51.838;5.838;2023-07-31T05:29:36;16.40;99.90
21306;DHT22;10812;51.838;5.838;2023-07-31T05:32:05;16.30;99.90
21306;DHT22;10812;51.838;5.838;2023-07-31T05:34:33;16.40;99.90
21306;DHT22;10812;51.838;5.838;2023-07-31T05:37:01;16.40;99.90
21306;DHT22;10812;51.838;5.838;2023-07-31T05:39:31;16.30;99.90
21306;DHT22;10812;51.838;5.838;2023-07-31T05:41:59;16.30;99.90
21306;DHT22;10812;51.838;5.838;2023-07-31T05:44:27;16.30;99.90
21306;DHT22;10812;51.838;5.838;2023-07-31T05:46:55;16.20;99.90
21306;DHT22;10812;51.838;5.838;2023-07-31T05:49:23;16.20;99.90
21306;DHT22;10812;51.838;5.838;2023-07-31T05:51:51;16.20;99.90
21306;DHT22;10812;51.838;5.838;2023-07-31T05:54:19;16.20;99.90
21306;DHT22;10812;51.838;5.838;2023-07-31T05:56:49;16.20;99.90
21306;DHT22;10812;51.838;5.838;2023-07-31T05:59:17;16.20;99.90
21306;DHT22;10812;51.838;5.838;2023-07-31T06:01:46;16.20;99.90
21306;DHT22;10812;51.838;5.838;2023-07-31T06:04:14;16.20;99.90
21306;DHT22;10812;51.838;5.838;2023-07-31T06:06:42;16.10;99.90
21306;DHT22;10812;51.838;5.838;2023-07-31T06:09:10;16.20;99.90
21306;DHT22;10812;51.838;5.838;2023-07-31T06:11:39;16.20;99.90
21306;DHT22;10812;51.838;5.838;2023-07-31T06:14:08;16.10;99.90
21306;DHT22;10812;51.838;5.838;2023-07-31T06:16:36;16.20;99.90
21306;DHT22;10812;51.838;5.838;2023-07-31T06:19:05;16.20;99.90
21306;DHT22;10812;51.838;5.838;2023-07-31T06:21:33;16.20;99.90
21306;DHT22;10812;51.838;5.838;2023-07-31T06:24:04;16.30;99.90
21306;DHT22;10812;51.838;5.838;2023-07-31T06:26:32;16.30;99.90
21306;DHT22;10812;51.838;5.838;2023-07-31T06:29:01;16.40;99.90
21306;DHT22;10812;51.838;5.838;2023-07-31T06:31:30;16.50;99.90
21306;DHT22;10812;51.838;5.838;2023-07-31T06:33:59;16.50;99.90
21306;DHT22;10812;51.838;5.838;2023-07-31T06:36:27;16.50;99.90
21306;DHT22;10812;51.838;5.838;2023-07-31T06:38:55;16.50;99.90
21306;DHT22;10812;51.838;5.838;2023-07-31T06:41:23;16.60;99.90
21306;DHT22;10812;51.838;5.838;2023-07-31T06:43:51;16.60;99.90
21306;DHT22;10812;51.838;5.838;2023-07-31T06:46:19;16.60;99.90
21306;DHT22;10812;51.838;5.838;2023-07-31T06:48:48;16.60;99.90
21306;DHT22;10812;51.838;5.838;2023-07-31T06:51:16;16.60;99.90
21306;DHT22;10812;51.838;5.838;2023-07-31T06:53:44;16.50;99.90
21306;DHT22;10812;51.838;5.838;2023-07-31T06:56:12;16.50;99.90
21306;DHT22;10812;51.838;5.838;2023-07-31T06:58:41;16.60;99.90
21306;DHT22;10812;51.838;5.838;2023-07-31T07:01:09;16.60;99.90
21306;DHT22;10812;51.838;5.838;2023-07-31T07:03:37;16.60;99.90
21306;DHT22;10812;51.838;5.838;2023-07-31T07:06:08;16.60;99.90
21306;DHT22;10812;51.838;5.838;2023-07-31T07:08:36;16.70;99.90
21306;DHT22;10812;51.838;5.838;2023-07-31T07:11:04;16.70;99.90
21306;DHT22;10812;51.838;5.838;2023-07-31T07:13:32;16.70;99.90
21306;DHT22;10812;51.838;5.838;2023-07-31T07:16:02;16.80;99.90
21306;DHT22;10812;51.838;5.838;2023-07-31T07:18:30;16.80;99.90
21306;DHT22;10812;51.838;5.838;2023-07-31T07:20:58;16.70;99.90
21306;DHT22;10812;51.838;5.838;2023-07-31T07:23:31;16.80;99.90
21306;DHT22;10812;51.838;5.838;2023-07-31T07:26:01;16.80;99.90
21306;DHT22;10812;51.838;5.838;2023-07-31T07:28:30;16.90;99.90
21306;DHT22;10812;51.838;5.838;2023-07-31T07:30:58;16.90;99.90
21306;DHT22;10812;51.838;5.838;2023-07-31T07:33:29;17.00;99.90
21306;DHT22;10812;51.838;5.838;2023-07-31T07:36:00;16.90;99.90
21306;DHT22;10812;51.838;5.838;2023-07-31T07:38:28;17.00;99.90
21306;DHT22;10812;51.838;5.838;2023-07-31T07:40:58;16.90;99.90
21306;DHT22;10812;51.838;5.838;2023-07-31T07:43:26;16.90;99.90
21306;DHT22;10812;51.838;5.838;2023-07-31T07:45:54;17.00;99.90
21306;DHT22;10812;51.838;5.838;2023-07-31T07:59:58;16.90;99.90
21306;DHT22;10812;51.838;5.838;2023-07-31T08:02:27;16.90;99.90
21306;DHT22;10812;51.838;5.838;2023-07-31T08:04:55;16.90;99.90
21306;DHT22;10812;51.838;5.838;2023-07-31T08:07:23;17.00;99.90
21306;DHT22;10812;51.838;5.838;2023-07-31T08:09:52;17.10;99.90
21306;DHT22;10812;51.838;5.838;2023-07-31T08:12:20;17.00;99.90
21306;DHT22;10812;51.838;5.838;2023-07-31T08:14:48;17.00;99.90
21306;DHT22;10812;51.838;5.838;2023-07-31T08:17:18;17.10;99.90
21306;DHT22;10812;51.838;5.838;2023-07-31T08:19:46;17.00;99.90
21306;DHT22;10812;51.838;5.838;2023-07-31T08:22:14;17.10;99.90
21306;DHT22;10812;51.838;5.838;2023-07-31T08:24:42;17.10;99.90
21306;DHT22;10812;51.838;5.838;2023-07-31T08:27:11;17.10;99.90
21306;DHT22;10812;51.838;5.838;2023-07-31T08:29:39;17.10;99.90
21306;DHT22;10812;51.838;5.838;2023-07-31T08:32:07;17.10;99.90
21306;DHT22;10812;51.838;5.838;2023-07-31T08:34:37;17.10;99.90
21306;DHT22;10812;51.838;5.838;2023-07-31T08:37:05;17.10;99.90
21306;DHT22;10812;51.838;5.838;2023-07-31T08:39:33;17.10;99.90
21306;DHT22;10812;51.838;5.838;2023-07-31T08:42:01;17.10;99.90
21306;DHT22;10812;51.838;5.838;2023-07-31T08:44:29;17.20;99.90
21306;DHT22;10812;51.838;5.838;2023-07-31T08:46:59;17.10;99.90
21306;DHT22;10812;51.838;5.838;2023-07-31T08:49:29;17.20;99.90
21306;DHT22;10812;51.838;5.838;2023-07-31T08:51:59;17.30;99.90
21306;DHT22;10812;51.838;5.838;2023-07-31T08:54:28;17.40;99.90
21306;DHT22;10812;51.838;5.838;2023-07-31T08:56:58;17.40;99.90
21306;DHT22;10812;51.838;5.838;2023-07-31T08:59:29;17.40;99.90
21306;DHT22;10812;51.838;5.838;2023-07-31T09:02:02;17.40;99.90
21306;DHT22;10812;51.838;5.838;2023-07-31T09:04:33;17.40;99.90
21306;DHT22;10812;51.838;5.838;2023-07-31T09:10:45;17.40;99.90
21306;DHT22;10812;51.838;5.838;2023-07-31T09:13:14;17.30;99.90
21306;DHT22;10812;51.838;5.838;2023-07-31T09:15:44;17.30;99.90
21306;DHT22;10812;51.838;5.838;2023-07-31T09:18:13;17.30;99.90
21306;DHT22;10812;51.838;5.838;2023-07-31T09:20:45;17.20;99.90
21306;DHT22;10812;51.838;5.838;2023-07-31T09:23:14;17.30;99.90
21306;DHT22;10812;51.838;5.838;2023-07-31T09:25:45;17.30;99.90
21306;DHT22;10812;51.838;5.838;2023-07-31T09:28:13;17.30;99.90
21306;DHT22;10812;51.838;5.838;2023-07-31T09:30:47;17.30;99.90
21306;DHT22;10812;51.838;5.838;2023-07-31T09:33:16;17.30;99.90
21306;DHT22;10812;51.838;5.838;2023-07-31T09:35:44;17.20;99.90
21306;DHT22;10812;51.838;5.838;2023-07-31T09:38:13;17.20;99.90
21306;DHT22;10812;51.838;5.838;2023-07-31T09:40:44;17.30;99.90
21306;DHT22;10812;51.838;5.838;2023-07-31T09:43:14;17.40;99.90
21306;DHT22;10812;51.838;5.838;2023-07-31T09:45:45;17.30;99.90
21306;DHT22;10812;51.838;5.838;2023-07-31T09:48:15;17.40;99.90
21306;DHT22;10812;51.838;5.838;2023-07-31T09:50:45;17.50;99.90
21306;DHT22;10812;51.838;5.838;2023-07-31T09:53:13;17.60;99.90
21306;DHT22;10812;51.838;5.838;2023-07-31T09:55:43;17.70;99.90
21306;DHT22;10812;51.838;5.838;2023-07-31T09:58:12;17.70;99.90
21306;DHT22;10812;51.838;5.838;2023-07-31T10:00:41;17.80;99.90
21306;DHT22;10812;51.838;5.838;2023-07-31T10:03:10;18.00;99.90
21306;DHT22;10812;51.838;5.838;2023-07-31T10:05:42;18.00;99.90
21306;DHT22;10812;51.838;5.838;2023-07-31T10:08:14;18.10;99.90
21306;DHT22;10812;51.838;5.838;2023-07-31T10:10:46;18.10;99.90
21306;DHT22;10812;51.838;5.838;2023-07-31T10:13:14;18.00;99.90
21306;DHT22;10812;51.838;5.838;2023-07-31T10:15:43;17.90;99.90
21306;DHT22;10812;51.838;5.838;2023-07-31T10:18:11;17.90;99.90
21306;DHT22;10812;51.838;5.838;2023-07-31T10:20:40;18.00;99.90
21306;DHT22;10812;51.838;5.838;2023-07-31T10:23:09;18.20;99.90
21306;DHT22;10812;51.838;5.838;2023-07-31T10:25:38;18.40;99.90
21306;DHT22;10812;51.838;5.838;2023-07-31T10:28:08;18.70;99.90
21306;DHT22;10812;51.838;5.838;2023-07-31T10:30:38;18.90;99.90
21306;DHT22;10812;51.838;5.838;2023-07-31T10:33:07;19.20;99.90
21306;DHT22;10812;51.838;5.838;2023-07-31T10:35:36;19.30;99.90
21306;DHT22;10812;51.838;5.838;2023-07-31T10:38:10;19.30;99.90
21306;DHT22;10812;51.838;5.838;2023-07-31T10:40:39;19.30;99.90
21306;DHT22;10812;51.838;5.838;2023-07-31T10:43:08;19.30;99.90
21306;DHT22;10812;51.838;5.838;2023-07-31T10:45:39;19.20;99.90
21306;DHT22;10812;51.838;5.838;2023-07-31T10:48:14;19.30;99.90
21306;DHT22;10812;51.838;5.838;2023-07-31T10:50:48;19.20;99.90
21306;DHT22;10812;51.838;5.838;2023-07-31T10:53:24;19.30;99.90
21306;DHT22;10812;51.838;5.838;2023-07-31T10:55:52;19.40;99.90
21306;DHT22;10812;51.838;5.838;2023-07-31T10:58:22;19.30;99.90
21306;DHT22;10812;51.838;5.838;2023-07-31T11:28:54;18.80;99.90
21306;DHT22;10812;51.838;5.838;2023-07-31T11:31:22;18.80;99.90
21306;DHT22;10812;51.838;5.838;2023-07-31T11:33:50;18.80;99.90
21306;DHT22;10812;51.838;5.838;2023-07-31T11:36:19;18.80;99.90
21306;DHT22;10812;51.838;5.838;2023-07-31T11:38:48;18.80;99.90
21306;DHT22;10812;51.838;5.838;2023-07-31T11:41:16;18.90;99.90
21306;DHT22;10812;51.838;5.838;2023-07-31T11:43:45;18.90;99.90
21306;DHT22;10812;51.838;5.838;2023-07-31T11:46:15;19.00;99.90
21306;DHT22;10812;51.838;5.838;2023-07-31T11:48:44;19.00;99.90
21306;DHT22;10812;51.838;5.838;2023-07-31T11:51:13;19.10;99.90
21306;DHT22;10812;51.838;5.838;2023-07-31T11:53:44;19.10;99.90
21306;DHT22;10812;51.838;5.838;2023-07-31T11:56:14;19.20;99.90
21306;DHT22;10812;51.838;5.838;2023-07-31T11:58:44;19.20;99.90
21306;DHT22;10812;51.838;5.838;2023-07-31T12:01:16;19.10;99.90
21306;DHT22;10812;51.838;5.838;2023-07-31T12:03:45;19.20;99.90
21306;DHT22;10812;51.838;5.838;2023-07-31T12:06:14;19.20;99.90
21306;DHT22;10812;51.838;5.838;2023-07-31T12:08:42;19.20;99.90
21306;DHT22;10812;51.838;5.838;2023-07-31T12:11:10;19.20;99.90
21306;DHT22;10812;51.838;5.838;2023-07-31T12:13:38;19.20;99.90
21306;DHT22;10812;51.838;5.838;2023-07-31T12:52:29;19.20;99.90
21306;DHT22;10812;51.838;5.838;2023-07-31T12:54:57;19.30;99.90
21306;DHT22;10812;51.838;5.838;2023-07-31T12:57:25;19.30;99.90
21306;DHT22;10812;51.838;5.838;2023-07-31T12:59:53;19.40;99.90
21306;DHT22;10812;51.838;5.838;2023-07-31T13:02:21;19.40;99.90
21306;DHT22;10812;51.838;5.838;2023-07-31T13:04:52;19.60;99.90
21306;DHT22;10812;51.838;5.838;2023-07-31T13:07:21;19.80;99.90
21306;DHT22;10812;51.838;5.838;2023-07-31T13:09:51;19.70;99.90
21306;DHT22;10812;51.838;5.838;2023-07-31T13:12:19;19.50;99.90
21306;DHT22;10812;51.838;5.838;2023-07-31T13:14:47;19.30;99.90
21306;DHT22;10812;51.838;5.838;2023-07-31T13:17:19;19.20;99.90
21306;DHT22;10812;51.838;5.838;2023-07-31T13:19:47;19.10;99.90
21306;DHT22;10812;51.838;5.838;2023-07-31T13:22:15;19.10;99.90
21306;DHT22;10812;51.838;5.838;2023-07-31T13:24:43;19.10;99.90
21306;DHT22;10812;51.838;5.838;2023-07-31T13:27:13;19.10;99.90
21306;DHT22;10812;51.838;5.838;2023-07-31T13:29:43;19.00;99.90
21306;DHT22;10812;51.838;5.838;2023-07-31T13:32:11;19.00;99.90
21306;DHT22;10812;51.838;5.838;2023-07-31T13:34:39;19.00;99.90
21306;DHT22;10812;51.838;5.838;2023-07-31T13:37:07;18.90;99.90
21306;DHT22;10812;51.838;5.838;2023-07-31T13:39:36;18.90;99.90
21306;DHT22;10812;51.838;5.838;2023-07-31T13:42:04;18.80;99.90
21306;DHT22;10812;51.838;5.838;2023-07-31T13:44:34;18.90;99.90
21306;DHT22;10812;51.838;5.838;2023-07-31T13:47:06;18.90;99.90
21306;DHT22;10812;51.838;5.838;2023-07-31T13:49:35;19.10;99.90
21306;DHT22;10812;51.838;5.838;2023-07-31T13:52:06;19.30;99.90
21306;DHT22;10812;51.838;5.838;2023-07-31T13:54:34;19.40;99.90
21306;DHT22;10812;51.838;5.838;2023-07-31T13:57:02;19.50;99.90
21306;DHT22;10812;51.838;5.838;2023-07-31T13:59:30;19.60;99.90
21306;DHT22;10812;51.838;5.838;2023-07-31T14:02:01;19.70;99.90
21306;DHT22;10812;51.838;5.838;2023-07-31T14:04:29;19.80;99.90
21306;DHT22;10812;51.838;5.838;2023-07-31T14:06:58;19.70;99.90
21306;DHT22;10812;51.838;5.838;2023-07-31T14:09:27;19.50;99.90
21306;DHT22;10812;51.838;5.838;2023-07-31T14:11:55;19.40;99.90
21306;DHT22;10812;51.838;5.838;2023-07-31T14:14:23;19.20;99.90
21306;DHT22;10812;51.838;5.838;2023-07-31T14:16:52;19.10;99.90
21306;DHT22;10812;51.838;5.838;2023-07-31T14:26:50;19.30;99.90
21306;DHT22;10812;51.838;5.838;2023-07-31T14:29:18;19.40;99.90
21306;DHT22;10812;51.838;5.838;2023-07-31T14:31:46;19.30;99.90
21306;DHT22;10812;51.838;5.838;2023-07-31T14:34:14;19.20;99.90
21306;DHT22;10812;51.838;5.838;2023-07-31T14:36:43;19.10;99.90
21306;DHT22;10812;51.838;5.838;2023-07-31T14:43:26;18.80;99.90
21306;DHT22;10812;51.838;5.838;2023-07-31T14:45:54;18.90;99.90
21306;DHT22;10812;51.838;5.838;2023-07-31T14:48:24;18.80;99.90
21306;DHT22;10812;51.838;5.838;2023-07-31T14:50:52;18.80;99.90
21306;DHT22;10812;51.838;5.838;2023-07-31T14:53:21;18.80;99.90
21306;DHT22;10812;51.838;5.838;2023-07-31T14:55:49;18.70;99.90
21306;DHT22;10812;51.838;5.838;2023-07-31T14:58:17;18.70;99.90
21306;DHT22;10812;51.838;5.838;2023-07-31T15:00:47;18.70;99.90
21306;DHT22;10812;51.838;5.838;2023-07-31T15:03:15;18.70;99.90
21306;DHT22;10812;51.838;5.838;2023-07-31T15:05:43;18.60;99.90
21306;DHT22;10812;51.838;5.838;2023-07-31T15:08:11;18.60;99.90
21306;DHT22;10812;51.838;5.838;2023-07-31T15:45:21;18.50;99.90
21306;DHT22;10812;51.838;5.838;2023-07-31T15:59:30;18.50;99.90
21306;DHT22;10812;51.838;5.838;2023-07-31T16:01:59;18.50;99.90
21306;DHT22;10812;51.838;5.838;2023-07-31T16:04:27;18.50;99.90
21306;DHT22;10812;51.838;5.838;2023-07-31T16:06:55;18.50;99.90
21306;DHT22;10812;51.838;5.838;2023-07-31T16:09:23;18.40;99.90
21306;DHT22;10812;51.838;5.838;2023-07-31T16:15:39;18.30;99.90
21306;DHT22;10812;51.838;5.838;2023-07-31T16:18:08;18.20;99.90
21306;DHT22;10812;51.838;5.838;2023-07-31T16:20:36;18.10;99.90
21306;DHT22;10812;51.838;5.838;2023-07-31T16:23:04;18.10;99.90
21306;DHT22;10812;51.838;5.838;2023-07-31T16:25:33;18.00;99.90
21306;DHT22;10812;51.838;5.838;2023-07-31T16:32:07;18.00;99.90
21306;DHT22;10812;51.838;5.838;2023-07-31T16:34:57;17.90;99.90
21306;DHT22;10812;51.838;5.838;2023-07-31T16:37:25;17.90;99.90
21306;DHT22;10812;51.838;5.838;2023-07-31T16:39:53;17.90;99.90
21306;DHT22;10812;51.838;5.838;2023-07-31T16:42:22;17.90;99.90
21306;DHT22;10812;51.838;5.838;2023-07-31T16:44:50;17.80;99.90
21306;DHT22;10812;51.838;5.838;2023-07-31T16:47:18;17.80;99.90
21306;DHT22;10812;51.838;5.838;2023-07-31T16:49:46;17.80;99.90
21306;DHT22;10812;51.838;5.838;2023-07-31T16:52:17;17.70;99.90
21306;DHT22;10812;51.838;5.838;2023-07-31T16:54:45;17.70;99.90
21306;DHT22;10812;51.838;5.838;2023-07-31T16:57:13;17.70;99.90
21306;DHT22;10812;51.838;5.838;2023-07-31T16:59:41;17.70;99.90
21306;DHT22;10812;51.838;5.838;2023-07-31T17:02:09;17.70;99.90
21306;DHT22;10812;51.838;5.838;2023-07-31T17:04:37;17.60;99.90
21306;DHT22;10812;51.838;5.838;2023-07-31T17:07:05;17.70;99.90
21306;DHT22;10812;51.838;5.838;2023-07-31T17:09:35;17.70;99.90
21306;DHT22;10812;51.838;5.838;2023-07-31T17:12:03;17.60;99.90
21306;DHT22;10812;51.838;5.838;2023-07-31T17:14:31;17.60;99.90
21306;DHT22;10812;51.838;5.838;2023-07-31T17:16:59;17.60;99.90
21306;DHT22;10812;51.838;5.838;2023-07-31T17:19:28;17.60;99.90
21306;DHT22;10812;51.838;5.838;2023-07-31T17:21:56;17.60;99.90
21306;DHT22;10812;51.838;5.838;2023-07-31T17:24:23;17.60;99.90
21306;DHT22;10812;51.838;5.838;2023-07-31T17:26:53;17.60;99.90
21306;DHT22;10812;51.838;5.838;2023-07-31T17:29:27;17.60;99.90
21306;DHT22;10812;51.838;5.838;2023-07-31T17:31:58;17.60;99.90
21306;DHT22;10812;51.838;5.838;2023-07-31T17:34:26;17.60;99.90
21306;DHT22;10812;51.838;5.838;2023-07-31T17:36:54;17.60;99.90
21306;DHT22;10812;51.838;5.838;2023-07-31T17:39:23;17.60;99.90
21306;DHT22;10812;51.838;5.838;2023-07-31T17:41:51;17.60;99.90
21306;DHT22;10812;51.838;5.838;2023-07-31T17:44:22;17.60;99.90
21306;DHT22;10812;51.838;5.838;2023-07-31T17:46:50;17.60;99.90
21306;DHT22;10812;51.838;5.838;2023-07-31T17:49:18;17.60;99.90
21306;DHT22;10812;51.838;5.838;2023-07-31T17:51:46;17.60;99.90
21306;DHT22;10812;51.838;5.838;2023-07-31T17:54:14;17.50;99.90
21306;DHT22;10812;51.838;5.838;2023-07-31T17:56:42;17.50;99.90
21306;DHT22;10812;51.838;5.838;2023-07-31T17:59:10;17.60;99.90
21306;DHT22;10812;51.838;5.838;2023-07-31T18:01:40;17.50;99.90
21306;DHT22;10812;51.838;5.838;2023-07-31T18:04:08;17.60;99.90
21306;DHT22;10812;51.838;5.838;2023-07-31T18:06:38;17.60;99.90
21306;DHT22;10812;51.838;5.838;2023-07-31T18:09:08;17.50;99.90
21306;DHT22;10812;51.838;5.838;2023-07-31T18:11:36;17.60;99.90
21306;DHT22;10812;51.838;5.838;2023-07-31T18:14:04;17.50;99.90
21306;DHT22;10812;51.838;5.838;2023-07-31T18:16:34;17.60;99.90
21306;DHT22;10812;51.838;5.838;2023-07-31T18:19:04;17.60;99.90
21306;DHT22;10812;51.838;5.838;2023-07-31T18:21:32;17.50;99.90
21306;DHT22;10812;51.838;5.838;2023-07-31T18:24:02;17.50;99.90